Time,TemperatureF,DewpointF,PressureIn,WindDirection,WindDirectionDegrees,WindSpeedMPH,WindSpeedGustMPH,Humidity,HourlyPrecipIn,Conditions,Clouds,dailyrainin,SoftwareType,DateUTC
2013-12-15 00:12:00,74.7,67.0,30.02,ESE,112,1.6,-999.0,77,-99.99,,,0.10,Acu-Link.com,2013-12-15 04:12:00,
2013-12-15 00:27:00,74.5,66.8,30.01,SE,135,2.2,-999.0,77,-99.99,,,0.10,Acu-Link.com,2013-12-15 04:27:00,
2013-12-15 00:42:00,74.3,67.0,30.01,South,180,2.2,-999.0,78,-99.99,,,0.10,Acu-Link.com,2013-12-15 04:42:00,
2013-12-15 00:58:00,74.1,67.2,30.01,WSW,247,0.0,-999.0,79,-99.99,,,0.10,Acu-Link.com,2013-12-15 04:58:00,
2013-12-15 01:13:00,73.8,67.2,30.01,SSE,157,0.0,-999.0,80,-99.99,,,0.00,Acu-Link.com,2013-12-15 05:13:00,
2013-12-15 01:28:00,74.1,67.5,30.00,SSW,202,1.6,-999.0,80,-99.99,,,0.00,Acu-Link.com,2013-12-15 05:28:00,
2013-12-15 01:43:00,73.9,67.4,30.00,South,180,0.0,-999.0,80,-99.99,,,0.00,Acu-Link.com,2013-12-15 05:43:00,
2013-12-15 01:59:00,73.8,67.2,29.99,South,180,0.0,-999.0,80,-99.99,,,0.00,Acu-Link.com,2013-12-15 05:59:00,
2013-12-15 02:14:00,74.1,67.5,29.99,ESE,112,1.6,-999.0,80,-99.99,,,0.00,Acu-Link.com,2013-12-15 06:14:00,
2013-12-15 02:29:00,74.8,68.6,29.99,South,180,3.8,-999.0,81,-99.99,,,0.00,Acu-Link.com,2013-12-15 06:29:00,
2013-12-15 02:44:00,75.2,68.6,29.98,ESE,112,3.1,-999.0,80,-99.99,,,0.00,Acu-Link.com,2013-12-15 06:44:00,
2013-12-15 02:59:00,75.6,68.2,29.98,ESE,112,3.1,-999.0,78,-99.99,,,0.00,Acu-Link.com,2013-12-15 06:59:00,
2013-12-15 03:15:00,75.9,68.2,29.98,East,90,2.7,-999.0,77,-99.99,,,0.00,Acu-Link.com,2013-12-15 07:15:00,
2013-12-15 03:30:00,75.9,68.2,29.97,ESE,112,2.2,-999.0,77,-99.99,,,0.00,Acu-Link.com,2013-12-15 07:30:00,
2013-12-15 03:45:00,76.1,66.8,29.97,ENE,67,3.8,-999.0,73,-99.99,,,0.00,Acu-Link.com,2013-12-15 07:45:00,
2013-12-15 04:00:00,76.1,66.8,29.98,ESE,112,2.2,-999.0,73,-99.99,,,0.00,Acu-Link.com,2013-12-15 08:00:00,
2013-12-15 04:15:00,75.9,66.6,29.98,ESE,112,4.3,-999.0,73,-99.99,,,0.00,Acu-Link.com,2013-12-15 08:15:00,
2013-12-15 04:31:00,75.9,66.6,29.98,ESE,112,3.8,-999.0,73,-99.99,,,0.00,Acu-Link.com,2013-12-15 08:31:00,
2013-12-15 04:46:00,75.6,66.3,29.98,SE,135,2.7,-999.0,73,-99.99,,,0.00,Acu-Link.com,2013-12-15 08:46:00,
2013-12-15 05:01:00,75.6,66.3,29.98,ESE,112,0.0,-999.0,73,-99.99,,,0.00,Acu-Link.com,2013-12-15 09:01:00,
2013-12-15 05:16:00,75.2,66.3,29.98,SSW,202,0.0,-999.0,74,-99.99,,,0.00,Acu-Link.com,2013-12-15 09:16:00,
2013-12-15 05:31:00,74.8,66.4,29.98,South,180,0.0,-999.0,75,-99.99,,,0.00,Acu-Link.com,2013-12-15 09:31:00,
2013-12-15 05:47:00,74.7,66.2,29.99,South,180,0.0,-999.0,75,-99.99,,,0.00,Acu-Link.com,2013-12-15 09:47:00,
2013-12-15 06:02:00,74.7,66.2,30.00,West,270,1.6,-999.0,75,-99.99,,,0.00,Acu-Link.com,2013-12-15 10:02:00,
2013-12-15 06:17:00,74.7,66.2,30.00,South,180,2.2,-999.0,75,-99.99,,,0.00,Acu-Link.com,2013-12-15 10:17:00,
2013-12-15 06:32:00,74.5,66.0,30.00,SSE,157,1.6,-999.0,75,-99.99,,,0.00,Acu-Link.com,2013-12-15 10:32:00,
2013-12-15 06:48:00,74.1,65.7,30.01,ESE,112,1.6,-999.0,75,-99.99,,,0.00,Acu-Link.com,2013-12-15 10:48:00,
2013-12-15 07:03:00,74.3,66.2,30.01,SSE,157,2.2,-999.0,76,-99.99,,,0.00,Acu-Link.com,2013-12-15 11:03:00,
2013-12-15 07:18:00,74.8,66.8,30.02,ESE,112,2.7,-999.0,76,-99.99,,,0.00,Acu-Link.com,2013-12-15 11:18:00,
2013-12-15 07:33:00,76.8,67.9,30.03,SE,135,1.1,-999.0,74,-99.99,,,0.00,Acu-Link.com,2013-12-15 11:33:00,
2013-12-15 07:48:00,76.8,67.9,30.03,ESE,112,2.7,-999.0,74,-99.99,,,0.00,Acu-Link.com,2013-12-15 11:48:00,
2013-12-15 08:04:00,78.1,69.1,30.04,ESE,112,1.6,-999.0,74,-99.99,,,0.00,Acu-Link.com,2013-12-15 12:04:00,
2013-12-15 08:19:00,79.2,69.3,30.04,SSW,202,2.2,-999.0,72,-99.99,,,0.00,Acu-Link.com,2013-12-15 12:19:00,
2013-12-15 08:34:00,80.2,70.0,30.04,SSW,202,2.2,-999.0,71,-99.99,,,0.00,Acu-Link.com,2013-12-15 12:34:00,
2013-12-15 08:49:00,80.6,69.9,30.06,SE,135,3.1,-999.0,70,-99.99,,,0.00,Acu-Link.com,2013-12-15 12:49:00,
2013-12-15 09:04:00,81.5,70.3,30.06,North,0,4.7,-999.0,69,-99.99,,,0.00,Acu-Link.com,2013-12-15 13:04:00,
2013-12-15 09:20:00,81.5,70.7,30.07,NE,45,2.2,-999.0,70,-99.99,,,0.00,Acu-Link.com,2013-12-15 13:20:00,
2013-12-15 09:35:00,81.0,71.9,30.07,ESE,112,6.3,-999.0,74,-99.99,,,0.00,Acu-Link.com,2013-12-15 13:35:00,
2013-12-15 09:50:00,80.1,71.4,30.07,East,90,6.3,-999.0,75,-99.99,,,0.00,Acu-Link.com,2013-12-15 13:50:00,
2013-12-15 10:05:00,77.4,71.4,30.08,SSE,157,7.8,-999.0,82,-99.99,,,0.01,Acu-Link.com,2013-12-15 14:05:00,
2013-12-15 10:21:00,78.3,71.9,30.08,ESE,112,3.1,-999.0,81,-99.99,,,0.01,Acu-Link.com,2013-12-15 14:21:00,
2013-12-15 10:36:00,80.1,72.2,30.07,ESE,112,3.1,-999.0,77,-99.99,,,0.01,Acu-Link.com,2013-12-15 14:36:00,
2013-12-15 10:51:00,79.7,71.8,30.07,SE,135,5.1,-999.0,77,-99.99,,,0.01,Acu-Link.com,2013-12-15 14:51:00,
2013-12-15 11:06:00,80.4,72.1,30.06,NNE,22,5.1,-999.0,76,-99.99,,,0.01,Acu-Link.com,2013-12-15 15:06:00,
2013-12-15 11:21:00,80.4,72.1,30.05,ESE,112,7.8,-999.0,76,-99.99,,,0.01,Acu-Link.com,2013-12-15 15:21:00,
2013-12-15 11:37:00,80.8,72.1,30.05,ESE,112,5.8,-999.0,75,-99.99,,,0.01,Acu-Link.com,2013-12-15 15:37:00,
2013-12-15 11:52:00,79.7,72.2,30.04,ESE,112,5.1,-999.0,78,-99.99,,,0.01,Acu-Link.com,2013-12-15 15:52:00,
2013-12-15 12:07:00,82.9,73.4,30.03,ESE,112,9.8,-999.0,73,-99.99,,,0.01,Acu-Link.com,2013-12-15 16:07:00,
2013-12-15 12:22:00,81.1,72.8,30.02,East,90,9.8,-999.0,76,-99.99,,,0.01,Acu-Link.com,2013-12-15 16:22:00,
2013-12-15 12:37:00,77.9,72.7,30.02,ESE,112,6.3,-999.0,84,-99.99,,,0.01,Acu-Link.com,2013-12-15 16:37:00,
2013-12-15 12:53:00,78.3,73.4,30.01,SE,135,5.1,-999.0,85,-99.99,,,0.04,Acu-Link.com,2013-12-15 16:53:00,
2013-12-15 13:08:00,79.7,72.6,30.00,East,90,6.7,-999.0,79,-99.99,,,0.04,Acu-Link.com,2013-12-15 17:08:00,
2013-12-15 13:23:00,82.4,74.1,29.99,East,90,3.1,-999.0,76,-99.99,,,0.04,Acu-Link.com,2013-12-15 17:23:00,
2013-12-15 13:38:00,82.0,73.3,29.98,East,90,11.9,-999.0,75,-99.99,,,0.04,Acu-Link.com,2013-12-15 17:38:00,
2013-12-15 13:53:00,82.4,73.3,29.97,East,90,8.9,-999.0,74,-99.99,,,0.04,Acu-Link.com,2013-12-15 17:53:00,
2013-12-15 14:09:00,82.8,74.0,29.97,ESE,112,6.7,-999.0,75,-99.99,,,0.04,Acu-Link.com,2013-12-15 18:09:00,
2013-12-15 14:24:00,82.6,72.6,29.97,East,90,7.8,-999.0,72,-99.99,,,0.04,Acu-Link.com,2013-12-15 18:24:00,
2013-12-15 14:39:00,82.0,72.1,29.97,SE,135,6.7,-999.0,72,-99.99,,,0.04,Acu-Link.com,2013-12-15 18:39:00,
2013-12-15 14:54:00,82.0,71.7,29.97,East,90,3.1,-999.0,71,-99.99,,,0.04,Acu-Link.com,2013-12-15 18:54:00,
2013-12-15 15:09:00,81.3,71.8,29.97,ENE,67,4.7,-999.0,73,-99.99,,,0.04,Acu-Link.com,2013-12-15 19:09:00,
2013-12-15 15:24:00,81.7,72.2,29.97,South,180,3.8,-999.0,73,-99.99,,,0.04,Acu-Link.com,2013-12-15 19:24:00,
2013-12-15 15:40:00,82.9,72.5,29.97,ESE,112,3.8,-999.0,71,-99.99,,,0.04,Acu-Link.com,2013-12-15 19:40:00,
2013-12-15 15:55:00,82.9,71.3,29.97,ESE,112,8.9,-999.0,68,-99.99,,,0.04,Acu-Link.com,2013-12-15 19:55:00,
2013-12-15 16:10:00,82.0,70.4,29.96,ESE,112,11.9,-999.0,68,-99.99,,,0.04,Acu-Link.com,2013-12-15 20:10:00,
2013-12-15 16:25:00,82.0,70.8,29.97,ESE,112,6.3,-999.0,69,-99.99,,,0.04,Acu-Link.com,2013-12-15 20:25:00,
2013-12-15 16:40:00,79.3,70.7,29.97,SSW,202,7.4,-999.0,75,-99.99,,,0.04,Acu-Link.com,2013-12-15 20:40:00,
2013-12-15 16:56:00,79.3,70.7,29.98,NNE,22,4.3,-999.0,75,-99.99,,,0.04,Acu-Link.com,2013-12-15 20:56:00,
2013-12-15 17:11:00,79.7,71.1,29.98,SE,135,5.1,-999.0,75,-99.99,,,0.04,Acu-Link.com,2013-12-15 21:11:00,
2013-12-15 17:26:00,79.7,71.1,29.98,SE,135,2.7,-999.0,75,-99.99,,,0.04,Acu-Link.com,2013-12-15 21:26:00,
2013-12-15 17:41:00,79.2,70.9,29.98,SE,135,0.0,-999.0,76,-99.99,,,0.04,Acu-Link.com,2013-12-15 21:41:00,
2013-12-15 17:57:00,78.4,70.6,29.98,SE,135,2.2,-999.0,77,-99.99,,,0.04,Acu-Link.com,2013-12-15 21:57:00,
2013-12-15 18:12:00,78.3,70.8,29.99,ESE,112,1.1,-999.0,78,-99.99,,,0.04,Acu-Link.com,2013-12-15 22:12:00,
2013-12-15 18:27:00,78.1,70.6,30.00,South,180,0.0,-999.0,78,-99.99,,,0.04,Acu-Link.com,2013-12-15 22:27:00,
2013-12-15 18:42:00,77.9,70.8,30.00,West,270,2.7,-999.0,79,-99.99,,,0.04,Acu-Link.com,2013-12-15 22:42:00,
2013-12-15 18:57:00,77.4,71.1,30.00,SW,225,0.0,-999.0,81,-99.99,,,0.04,Acu-Link.com,2013-12-15 22:57:00,
2013-12-15 19:13:00,77.5,71.2,30.01,WSW,247,1.6,-999.0,81,-99.99,,,0.04,Acu-Link.com,2013-12-15 23:13:00,
2013-12-15 19:28:00,77.5,71.2,30.01,SSE,157,0.0,-999.0,81,-99.99,,,0.04,Acu-Link.com,2013-12-15 23:28:00,
2013-12-15 19:43:00,77.7,71.0,30.01,SSW,202,0.0,-999.0,80,-99.99,,,0.04,Acu-Link.com,2013-12-15 23:43:00,
2013-12-15 19:58:00,77.9,70.8,30.02,East,90,1.1,-999.0,79,-99.99,,,0.04,Acu-Link.com,2013-12-15 23:58:00,
2013-12-15 20:13:00,78.3,70.8,30.02,ESE,112,2.2,-999.0,78,-99.99,,,0.04,Acu-Link.com,2013-12-16 00:13:00,
2013-12-15 20:29:00,77.5,71.6,30.03,ENE,67,3.1,-999.0,82,-99.99,,,0.06,Acu-Link.com,2013-12-16 00:29:00,
2013-12-15 20:44:00,76.6,71.8,30.03,ESE,112,5.1,-999.0,85,-99.99,,,0.07,Acu-Link.com,2013-12-16 00:44:00,
2013-12-15 20:59:00,76.6,71.8,30.03,NNE,22,1.6,-999.0,85,-99.99,,,0.07,Acu-Link.com,2013-12-16 00:59:00,
2013-12-15 21:14:00,76.6,71.8,30.03,North,0,3.1,-999.0,85,-99.99,,,0.07,Acu-Link.com,2013-12-16 01:14:00,
2013-12-15 21:30:00,76.6,71.8,30.03,ESE,112,2.7,-999.0,85,-99.99,,,0.07,Acu-Link.com,2013-12-16 01:30:00,
2013-12-15 21:45:00,76.5,72.0,30.04,South,180,4.3,-999.0,86,-99.99,,,0.07,Acu-Link.com,2013-12-16 01:45:00,
2013-12-15 22:00:00,76.3,71.8,30.04,SE,135,2.2,-999.0,86,-99.99,,,0.07,Acu-Link.com,2013-12-16 02:00:00,
2013-12-15 22:15:00,75.9,71.4,30.03,SSE,157,1.1,-999.0,86,-99.99,,,0.07,Acu-Link.com,2013-12-16 02:15:00,
2013-12-15 22:30:00,75.9,71.8,30.03,SE,135,3.8,-999.0,87,-99.99,,,0.07,Acu-Link.com,2013-12-16 02:30:00,
2013-12-15 22:46:00,76.3,71.8,30.03,NE,45,4.7,-999.0,86,-99.99,,,0.07,Acu-Link.com,2013-12-16 02:46:00,
2013-12-15 23:01:00,76.6,72.1,30.03,ESE,112,3.1,-999.0,86,-99.99,,,0.07,Acu-Link.com,2013-12-16 03:01:00,
2013-12-15 23:16:00,76.6,72.1,30.02,East,90,3.1,-999.0,86,-99.99,,,0.07,Acu-Link.com,2013-12-16 03:16:00,
2013-12-15 23:31:00,76.5,72.0,30.02,SE,135,6.7,-999.0,86,-99.99,,,0.07,Acu-Link.com,2013-12-16 03:31:00,
2013-12-15 23:46:00,76.5,72.0,30.01,ESE,112,2.7,-999.0,86,-99.99,,,0.07,Acu-Link.com,2013-12-16 03:46:00,